createdAt,value
2019-02-08T00:00:52.378Z,15.29
2019-02-08T00:20:51.851Z,18.87
2019-02-08T00:41:01.351Z,15.35
2019-02-08T01:01:13.251Z,17.56
2019-02-08T01:21:12.341Z,16.69
2019-02-08T01:41:22.022Z,12.24
2019-02-08T02:01:33.848Z,15.49
2019-02-08T02:21:33.370Z,15.94
2019-02-08T02:41:42.960Z,16.49
2019-02-08T03:01:52.500Z,17.38
2019-02-08T03:22:01.981Z,19.58
2019-02-08T03:42:11.562Z,19.26
2019-02-08T04:02:21.194Z,21.38
2019-02-08T04:22:30.754Z,20.79
2019-02-08T04:42:40.180Z,28.21
2019-02-08T05:02:49.790Z,19.84
2019-02-08T05:22:59.217Z,23.31
2019-02-08T05:43:08.823Z,19.76
2019-02-08T06:03:18.374Z,24.31
2019-02-08T06:23:27.895Z,17.77
2019-02-08T06:43:40.442Z,17.50
2019-02-08T07:03:40.002Z,16.13
2019-02-08T07:23:49.507Z,18.18
2019-02-08T07:43:59.059Z,19.54
2019-02-08T08:04:10.916Z,17.56
2019-02-08T08:24:10.399Z,17.14
2019-02-08T08:44:22.136Z,19.69
2019-02-08T09:04:21.598Z,20.32
2019-02-08T09:24:31.056Z,18.74
2019-02-08T09:44:45.084Z,20.52
2019-02-08T10:04:44.605Z,20.35
2019-02-08T10:24:54.146Z,20.84
2019-02-08T10:45:03.610Z,22.30
2019-02-08T11:05:13.119Z,20.14
2019-02-08T11:25:25.036Z,22.38
2019-02-08T11:45:24.596Z,21.43
2019-02-08T12:05:34.103Z,20.37
2019-02-08T12:25:43.665Z,21.81
2019-02-08T12:45:55.434Z,22.05
2019-02-08T13:05:55.163Z,23.50
2019-02-08T13:26:04.768Z,22.01
2019-02-08T13:46:14.438Z,23.93
2019-02-08T14:06:27.132Z,24.45
2019-02-08T14:26:26.622Z,24.25
2019-02-08T14:46:36.240Z,24.03
2019-02-08T15:06:45.767Z,23.78
2019-02-08T15:26:55.350Z,25.58
2019-02-08T15:47:05.070Z,24.95
2019-02-08T16:07:14.872Z,25.27
2019-02-08T16:27:24.423Z,27.51
2019-02-08T16:47:34.882Z,29.02
2019-02-08T17:07:47.950Z,31.77
2019-02-08T17:27:55.030Z,29.23
2019-02-08T17:47:56.953Z,30.94
2019-02-08T18:08:14.085Z,39.13
2019-02-08T18:28:16.659Z,37.20
2019-02-08T18:48:14.941Z,32.05
2019-02-08T19:08:24.500Z,32.20
2019-02-08T19:28:34.248Z,35.09
2019-02-08T19:48:51.340Z,38.13
2019-02-08T20:08:53.550Z,35.90
2019-02-08T20:28:53.264Z,35.49
2019-02-08T20:49:10.796Z,36.30
2019-02-08T21:09:11.432Z,37.25
2019-02-08T21:29:11.082Z,36.65
2019-02-08T21:49:20.787Z,40.73
2019-02-08T22:09:30.424Z,37.53
2019-02-08T22:29:40.011Z,35.66
2019-02-08T22:49:51.717Z,37.68
2019-02-08T23:09:51.294Z,46.79
2019-02-08T23:30:00.888Z,41.07
2019-02-08T23:50:10.496Z,41.54
